sensor_id;sensor_type;location;lat;lon;timestamp;pressure;altitude;pressure_sealevel;temperature
15845;BMP180;50807;52.436;13.346;2022-07-21T00:00:01;101077.00;;;31.50
15845;BMP180;50807;52.436;13.346;2022-07-21T00:00:35;101075.00;;;31.50
15845;BMP180;50807;52.436;13.346;2022-07-21T00:01:07;101071.00;;;31.40
15845;BMP180;50807;52.436;13.346;2022-07-21T00:01:38;101070.00;;;31.40
15845;BMP180;50807;52.436;13.346;2022-07-21T00:02:08;101067.00;;;31.50
15845;BMP180;50807;52.436;13.346;2022-07-21T00:02:39;101077.00;;;31.40
15845;BMP180;50807;52.436;13.346;2022-07-21T00:03:11;101067.00;;;31.40
15845;BMP180;50807;52.436;13.346;2022-07-21T00:03:42;101070.00;;;31.40
15845;BMP180;50807;52.436;13.346;2022-07-21T00:04:13;101067.00;;;31.40
15845;BMP180;50807;52.436;13.346;2022-07-21T00:04:45;101071.00;;;31.40
15845;BMP180;50807;52.436;13.346;2022-07-21T00:05:17;101059.00;;;31.40
15845;BMP180;50807;52.436;13.346;2022-07-21T00:05:48;101067.00;;;31.40
15845;BMP180;50807;52.436;13.346;2022-07-21T00:06:20;101067.00;;;31.40
15845;BMP180;50807;52.436;13.346;2022-07-21T00:06:52;101069.00;;;31.40
15845;BMP180;50807;52.436;13.346;2022-07-21T00:07:22;101063.00;;;31.40
15845;BMP180;50807;52.436;13.346;2022-07-21T00:07:55;101064.00;;;31.40
15845;BMP180;50807;52.436;13.346;2022-07-21T00:08:26;101065.00;;;31.30
15845;BMP180;50807;52.436;13.346;2022-07-21T00:08:57;101060.00;;;31.30
15845;BMP180;50807;52.436;13.346;2022-07-21T00:09:28;101063.00;;;31.30
15845;BMP180;50807;52.436;13.346;2022-07-21T00:09:59;101059.00;;;31.30
15845;BMP180;50807;52.436;13.346;2022-07-21T00:10:31;101060.00;;;31.30
15845;BMP180;50807;52.436;13.346;2022-07-21T00:11:02;101060.00;;;31.30
15845;BMP180;50807;52.436;13.346;2022-07-21T00:11:33;101058.00;;;31.30
15845;BMP180;50807;52.436;13.346;2022-07-21T00:12:06;101058.00;;;31.30
15845;BMP180;50807;52.436;13.346;2022-07-21T00:12:37;101058.00;;;31.30
15845;BMP180;50807;52.436;13.346;2022-07-21T00:13:08;101057.00;;;31.30
15845;BMP180;50807;52.436;13.346;2022-07-21T00:13:39;101062.00;;;31.30
15845;BMP180;50807;52.436;13.346;2022-07-21T00:14:11;101054.00;;;31.20
15845;BMP180;50807;52.436;13.346;2022-07-21T00:14:42;101057.00;;;31.30
15845;BMP180;50807;52.436;13.346;2022-07-21T00:15:17;101059.00;;;31.20
15845;BMP180;50807;52.436;13.346;2022-07-21T00:15:48;101064.00;;;31.20
15845;BMP180;50807;52.436;13.346;2022-07-21T00:16:19;101057.00;;;31.20
15845;BMP180;50807;52.436;13.346;2022-07-21T00:16:51;101058.00;;;31.20
15845;BMP180;50807;52.436;13.346;2022-07-21T00:17:22;101057.00;;;31.20
15845;BMP180;50807;52.436;13.346;2022-07-21T00:17:53;101056.00;;;31.20
15845;BMP180;50807;52.436;13.346;2022-07-21T00:18:26;101050.00;;;31.20
15845;BMP180;50807;52.436;13.346;2022-07-21T00:18:59;101057.00;;;31.20
15845;BMP180;50807;52.436;13.346;2022-07-21T00:19:29;101048.00;;;31.20
15845;BMP180;50807;52.436;13.346;2022-07-21T00:20:05;101054.00;;;31.20
15845;BMP180;50807;52.436;13.346;2022-07-21T00:20:36;101045.00;;;31.10
15845;BMP180;50807;52.436;13.346;2022-07-21T00:21:07;101048.00;;;31.20
15845;BMP180;50807;52.436;13.346;2022-07-21T00:21:39;101045.00;;;31.20
15845;BMP180;50807;52.436;13.346;2022-07-21T00:22:11;101045.00;;;31.10
15845;BMP180;50807;52.436;13.346;2022-07-21T00:22:42;101037.00;;;31.10
15845;BMP180;50807;52.436;13.346;2022-07-21T00:23:13;101041.00;;;31.10
15845;BMP180;50807;52.436;13.346;2022-07-21T00:23:45;101037.00;;;31.10
15845;BMP180;50807;52.436;13.346;2022-07-21T00:24:16;101048.00;;;31.10
15845;BMP180;50807;52.436;13.346;2022-07-21T00:24:47;101036.00;;;31.10
15845;BMP180;50807;52.436;13.346;2022-07-21T00:25:18;101040.00;;;31.10
15845;BMP180;50807;52.436;13.346;2022-07-21T00:25:49;101039.00;;;31.10
15845;BMP180;50807;52.436;13.346;2022-07-21T00:26:21;101042.00;;;31.10
15845;BMP180;50807;52.436;13.346;2022-07-21T00:26:52;101038.00;;;31.00
15845;BMP180;50807;52.436;13.346;2022-07-21T00:27:23;101037.00;;;31.00
15845;BMP180;50807;52.436;13.346;2022-07-21T00:27:55;101037.00;;;31.00
15845;BMP180;50807;52.436;13.346;2022-07-21T00:28:25;101039.00;;;31.00
15845;BMP180;50807;52.436;13.346;2022-07-21T00:28:56;101037.00;;;31.00
15845;BMP180;50807;52.436;13.346;2022-07-21T00:29:28;101030.00;;;31.00
15845;BMP180;50807;52.436;13.346;2022-07-21T00:29:59;101035.00;;;31.00
15845;BMP180;50807;52.436;13.346;2022-07-21T00:30:30;101032.00;;;31.00
15845;BMP180;50807;52.436;13.346;2022-07-21T00:31:01;101028.00;;;31.00
15845;BMP180;50807;52.436;13.346;2022-07-21T00:31:32;101034.00;;;31.00
15845;BMP180;50807;52.436;13.346;2022-07-21T00:32:04;101032.00;;;30.90
15845;BMP180;50807;52.436;13.346;2022-07-21T00:32:37;101039.00;;;30.90
15845;BMP180;50807;52.436;13.346;2022-07-21T00:33:07;101036.00;;;30.90
15845;BMP180;50807;52.436;13.346;2022-07-21T00:33:38;101031.00;;;30.90
15845;BMP180;50807;52.436;13.346;2022-07-21T00:34:10;101040.00;;;30.90
15845;BMP180;50807;52.436;13.346;2022-07-21T00:34:41;101026.00;;;30.90
15845;BMP180;50807;52.436;13.346;2022-07-21T00:35:12;101029.00;;;30.90
15845;BMP180;50807;52.436;13.346;2022-07-21T00:35:44;101033.00;;;30.90
15845;BMP180;50807;52.436;13.346;2022-07-21T00:36:15;101031.00;;;30.90
15845;BMP180;50807;52.436;13.346;2022-07-21T00:36:45;101034.00;;;30.90
15845;BMP180;50807;52.436;13.346;2022-07-21T00:37:18;101028.00;;;30.90
15845;BMP180;50807;52.436;13.346;2022-07-21T00:37:50;101031.00;;;30.80
15845;BMP180;50807;52.436;13.346;2022-07-21T00:38:20;101031.00;;;30.80
15845;BMP180;50807;52.436;13.346;2022-07-21T00:38:52;101030.00;;;30.80
15845;BMP180;50807;52.436;13.346;2022-07-21T00:39:23;101027.00;;;30.90
15845;BMP180;50807;52.436;13.346;2022-07-21T00:39:54;101033.00;;;30.80
15845;BMP180;50807;52.436;13.346;2022-07-21T00:40:26;101027.00;;;30.80
15845;BMP180;50807;52.436;13.346;2022-07-21T00:40:57;101027.00;;;30.80
15845;BMP180;50807;52.436;13.346;2022-07-21T00:41:29;101025.00;;;30.80
15845;BMP180;50807;52.436;13.346;2022-07-21T00:42:00;101031.00;;;30.80
15845;BMP180;50807;52.436;13.346;2022-07-21T00:42:32;101023.00;;;30.80
15845;BMP180;50807;52.436;13.346;2022-07-21T00:43:03;101022.00;;;30.80
15845;BMP180;50807;52.436;13.346;2022-07-21T00:43:35;101025.00;;;30.80
15845;BMP180;50807;52.436;13.346;2022-07-21T00:44:06;101028.00;;;30.80
15845;BMP180;50807;52.436;13.346;2022-07-21T00:44:36;101030.00;;;30.80
15845;BMP180;50807;52.436;13.346;2022-07-21T00:45:10;101033.00;;;30.80
15845;BMP180;50807;52.436;13.346;2022-07-21T00:45:41;101029.00;;;30.80
15845;BMP180;50807;52.436;13.346;2022-07-21T00:46:11;101023.00;;;30.80
15845;BMP180;50807;52.436;13.346;2022-07-21T00:46:44;101030.00;;;30.80
15845;BMP180;50807;52.436;13.346;2022-07-21T00:47:18;101029.00;;;30.80
15845;BMP180;50807;52.436;13.346;2022-07-21T00:47:50;101031.00;;;30.80
15845;BMP180;50807;52.436;13.346;2022-07-21T00:48:22;101029.00;;;30.80
15845;BMP180;50807;52.436;13.346;2022-07-21T00:48:53;101033.00;;;30.80
15845;BMP180;50807;52.436;13.346;2022-07-21T00:49:24;101032.00;;;30.80
15845;BMP180;50807;52.436;13.346;2022-07-21T00:50:01;101025.00;;;30.80
15845;BMP180;50807;52.436;13.346;2022-07-21T00:50:32;101028.00;;;30.80
15845;BMP180;50807;52.436;13.346;2022-07-21T00:51:04;101028.00;;;30.80
15845;BMP180;50807;52.436;13.346;2022-07-21T00:51:36;101024.00;;;30.70
15845;BMP180;50807;52.436;13.346;2022-07-21T00:52:06;101023.00;;;30.70
15845;BMP180;50807;52.436;13.346;2022-07-21T00:52:38;101030.00;;;30.70
15845;BMP180;50807;52.436;13.346;2022-07-21T00:53:09;101036.00;;;30.70
15845;BMP180;50807;52.436;13.346;2022-07-21T00:53:41;101031.00;;;30.70
15845;BMP180;50807;52.436;13.346;2022-07-21T00:54:14;101033.00;;;30.70
15845;BMP180;50807;52.436;13.346;2022-07-21T00:54:46;101038.00;;;30.70
15845;BMP180;50807;52.436;13.346;2022-07-21T00:55:22;101028.00;;;30.60
15845;BMP180;50807;52.436;13.346;2022-07-21T00:55:54;101036.00;;;30.60
15845;BMP180;50807;52.436;13.346;2022-07-21T00:56:25;101036.00;;;30.60
15845;BMP180;50807;52.436;13.346;2022-07-21T00:56:56;101033.00;;;30.60
15845;BMP180;50807;52.436;13.346;2022-07-21T00:57:28;101032.00;;;30.60
15845;BMP180;50807;52.436;13.346;2022-07-21T00:57:58;101032.00;;;30.60
15845;BMP180;50807;52.436;13.346;2022-07-21T00:58:29;101031.00;;;30.60
15845;BMP180;50807;52.436;13.346;2022-07-21T00:59:01;101035.00;;;30.60
15845;BMP180;50807;52.436;13.346;2022-07-21T00:59:32;101030.00;;;30.60
15845;BMP180;50807;52.436;13.346;2022-07-21T01:00:05;101032.00;;;30.60
15845;BMP180;50807;52.436;13.346;2022-07-21T01:00:37;101027.00;;;30.60
15845;BMP180;50807;52.436;13.346;2022-07-21T01:01:08;101032.00;;;30.60
15845;BMP180;50807;52.436;13.346;2022-07-21T01:01:39;101027.00;;;30.60
15845;BMP180;50807;52.436;13.346;2022-07-21T01:02:11;101036.00;;;30.60
15845;BMP180;50807;52.436;13.346;2022-07-21T01:02:43;101024.00;;;30.60
15845;BMP180;50807;52.436;13.346;2022-07-21T01:03:14;101035.00;;;30.60
15845;BMP180;50807;52.436;13.346;2022-07-21T01:03:45;101035.00;;;30.60
15845;BMP180;50807;52.436;13.346;2022-07-21T01:04:17;101036.00;;;30.60
15845;BMP180;50807;52.436;13.346;2022-07-21T01:04:48;101029.00;;;30.60
15845;BMP180;50807;52.436;13.346;2022-07-21T01:05:19;101032.00;;;30.60
15845;BMP180;50807;52.436;13.346;2022-07-21T01:05:52;101034.00;;;30.60
15845;BMP180;50807;52.436;13.346;2022-07-21T01:06:23;101038.00;;;30.60
15845;BMP180;50807;52.436;13.346;2022-07-21T01:06:57;101039.00;;;30.60
15845;BMP180;50807;52.436;13.346;2022-07-21T01:07:28;101032.00;;;30.60
15845;BMP180;50807;52.436;13.346;2022-07-21T01:08:01;101027.00;;;30.60
15845;BMP180;50807;52.436;13.346;2022-07-21T01:08:32;101035.00;;;30.60
15845;BMP180;50807;52.436;13.346;2022-07-21T01:09:04;101034.00;;;30.60
15845;BMP180;50807;52.436;13.346;2022-07-21T01:09:36;101037.00;;;30.60
15845;BMP180;50807;52.436;13.346;2022-07-21T01:10:07;101031.00;;;30.60
15845;BMP180;50807;52.436;13.346;2022-07-21T01:10:39;101027.00;;;30.60
15845;BMP180;50807;52.436;13.346;2022-07-21T01:11:12;101026.00;;;30.60
15845;BMP180;50807;52.436;13.346;2022-07-21T01:11:43;101028.00;;;30.60
15845;BMP180;50807;52.436;13.346;2022-07-21T01:12:14;101033.00;;;30.60
15845;BMP180;50807;52.436;13.346;2022-07-21T01:12:45;101032.00;;;30.60
15845;BMP180;50807;52.436;13.346;2022-07-21T01:13:17;101027.00;;;30.60
15845;BMP180;50807;52.436;13.346;2022-07-21T01:13:48;101033.00;;;30.60
15845;BMP180;50807;52.436;13.346;2022-07-21T01:14:19;101029.00;;;30.60
15845;BMP180;50807;52.436;13.346;2022-07-21T01:14:52;101032.00;;;30.60
15845;BMP180;50807;52.436;13.346;2022-07-21T01:15:23;101028.00;;;30.50
15845;BMP180;50807;52.436;13.346;2022-07-21T01:15:54;101025.00;;;30.50
15845;BMP180;50807;52.436;13.346;2022-07-21T01:16:26;101028.00;;;30.50
15845;BMP180;50807;52.436;13.346;2022-07-21T01:16:57;101026.00;;;30.50
15845;BMP180;50807;52.436;13.346;2022-07-21T01:17:28;101031.00;;;30.50
15845;BMP180;50807;52.436;13.346;2022-07-21T01:17:59;101027.00;;;30.50
15845;BMP180;50807;52.436;13.346;2022-07-21T01:18:31;101033.00;;;30.50
15845;BMP180;50807;52.436;13.346;2022-07-21T01:19:02;101026.00;;;30.50
15845;BMP180;50807;52.436;13.346;2022-07-21T01:19:34;101026.00;;;30.50
15845;BMP180;50807;52.436;13.346;2022-07-21T01:20:09;101020.00;;;30.50
15845;BMP180;50807;52.436;13.346;2022-07-21T01:20:45;101022.00;;;30.40
15845;BMP180;50807;52.436;13.346;2022-07-21T01:21:32;101020.00;;;30.30
15845;BMP180;50807;52.436;13.346;2022-07-21T01:22:04;101020.00;;;30.40
15845;BMP180;50807;52.436;13.346;2022-07-21T01:22:40;101024.00;;;30.40
15845;BMP180;50807;52.436;13.346;2022-07-21T01:23:11;101019.00;;;30.40
15845;BMP180;50807;52.436;13.346;2022-07-21T01:23:43;101026.00;;;30.40
15845;BMP180;50807;52.436;13.346;2022-07-21T01:24:14;101023.00;;;30.40
15845;BMP180;50807;52.436;13.346;2022-07-21T01:24:45;101018.00;;;30.40
15845;BMP180;50807;52.436;13.346;2022-07-21T01:25:18;101010.00;;;30.40
15845;BMP180;50807;52.436;13.346;2022-07-21T01:25:51;101008.00;;;30.40
15845;BMP180;50807;52.436;13.346;2022-07-21T01:26:22;101008.00;;;30.30
15845;BMP180;50807;52.436;13.346;2022-07-21T01:26:53;101011.00;;;30.40
15845;BMP180;50807;52.436;13.346;2022-07-21T01:27:26;101011.00;;;30.40
15845;BMP180;50807;52.436;13.346;2022-07-21T01:27:57;101012.00;;;30.40
15845;BMP180;50807;52.436;13.346;2022-07-21T01:28:29;101009.00;;;30.40
15845;BMP180;50807;52.436;13.346;2022-07-21T01:29:00;101020.00;;;30.40
15845;BMP180;50807;52.436;13.346;2022-07-21T01:29:31;101010.00;;;30.40
15845;BMP180;50807;52.436;13.346;2022-07-21T01:30:04;101011.00;;;30.40
15845;BMP180;50807;52.436;13.346;2022-07-21T01:30:35;101013.00;;;30.30
15845;BMP180;50807;52.436;13.346;2022-07-21T01:31:06;101012.00;;;30.30
15845;BMP180;50807;52.436;13.346;2022-07-21T01:31:40;101015.00;;;30.30
15845;BMP180;50807;52.436;13.346;2022-07-21T01:32:11;101016.00;;;30.30
15845;BMP180;50807;52.436;13.346;2022-07-21T01:32:42;101014.00;;;30.30
15845;BMP180;50807;52.436;13.346;2022-07-21T01:33:14;101003.00;;;30.30
15845;BMP180;50807;52.436;13.346;2022-07-21T01:33:45;101011.00;;;30.30
15845;BMP180;50807;52.436;13.346;2022-07-21T01:34:17;101010.00;;;30.30
15845;BMP180;50807;52.436;13.346;2022-07-21T01:34:50;101007.00;;;30.30
15845;BMP180;50807;52.436;13.346;2022-07-21T01:35:21;101007.00;;;30.30
15845;BMP180;50807;52.436;13.346;2022-07-21T01:35:52;101013.00;;;30.30
15845;BMP180;50807;52.436;13.346;2022-07-21T01:36:23;101006.00;;;30.30
15845;BMP180;50807;52.436;13.346;2022-07-21T01:36:56;101003.00;;;30.20
15845;BMP180;50807;52.436;13.346;2022-07-21T01:37:30;101010.00;;;30.20
15845;BMP180;50807;52.436;13.346;2022-07-21T01:38:03;101016.00;;;30.20
15845;BMP180;50807;52.436;13.346;2022-07-21T01:38:34;101011.00;;;30.20
15845;BMP180;50807;52.436;13.346;2022-07-21T01:39:23;101004.00;;;30.10
15845;BMP180;50807;52.436;13.346;2022-07-21T01:40:14;101018.00;;;30.10
15845;BMP180;50807;52.436;13.346;2022-07-21T01:41:04;101019.00;;;30.00
15845;BMP180;50807;52.436;13.346;2022-07-21T01:41:53;101016.00;;;30.00
15845;BMP180;50807;52.436;13.346;2022-07-21T01:42:25;101011.00;;;30.00
15845;BMP180;50807;52.436;13.346;2022-07-21T01:42:56;101012.00;;;30.00
15845;BMP180;50807;52.436;13.346;2022-07-21T01:43:26;101013.00;;;30.00
15845;BMP180;50807;52.436;13.346;2022-07-21T01:44:01;101002.00;;;30.00
15845;BMP180;50807;52.436;13.346;2022-07-21T01:44:32;101008.00;;;30.10
15845;BMP180;50807;52.436;13.346;2022-07-21T01:45:05;101014.00;;;30.00
15845;BMP180;50807;52.436;13.346;2022-07-21T01:45:38;101005.00;;;30.10
15845;BMP180;50807;52.436;13.346;2022-07-21T01:46:10;101007.00;;;30.00
15845;BMP180;50807;52.436;13.346;2022-07-21T01:46:46;101002.00;;;30.00
15845;BMP180;50807;52.436;13.346;2022-07-21T01:47:18;100997.00;;;30.00
15845;BMP180;50807;52.436;13.346;2022-07-21T01:47:51;100997.00;;;30.00
15845;BMP180;50807;52.436;13.346;2022-07-21T01:48:21;100998.00;;;30.00
15845;BMP180;50807;52.436;13.346;2022-07-21T01:48:53;100997.00;;;30.10
15845;BMP180;50807;52.436;13.346;2022-07-21T01:49:24;100994.00;;;30.00
15845;BMP180;50807;52.436;13.346;2022-07-21T01:49:55;100991.00;;;30.10
15845;BMP180;50807;52.436;13.346;2022-07-21T01:50:27;100995.00;;;30.10
15845;BMP180;50807;52.436;13.346;2022-07-21T01:50:57;100993.00;;;30.10
15845;BMP180;50807;52.436;13.346;2022-07-21T01:51:28;100996.00;;;30.10
15845;BMP180;50807;52.436;13.346;2022-07-21T01:52:02;100991.00;;;30.00
15845;BMP180;50807;52.436;13.346;2022-07-21T01:52:33;100995.00;;;30.00
15845;BMP180;50807;52.436;13.346;2022-07-21T01:53:03;101000.00;;;30.00
15845;BMP180;50807;52.436;13.346;2022-07-21T01:53:35;100990.00;;;30.00
15845;BMP180;50807;52.436;13.346;2022-07-21T01:54:09;100999.00;;;30.00
15845;BMP180;50807;52.436;13.346;2022-07-21T01:54:40;101003.00;;;30.00
15845;BMP180;50807;52.436;13.346;2022-07-21T01:55:12;101008.00;;;30.00
15845;BMP180;50807;52.436;13.346;2022-07-21T01:55:43;101002.00;;;30.00
15845;BMP180;50807;52.436;13.346;2022-07-21T01:56:14;101006.00;;;30.00
15845;BMP180;50807;52.436;13.346;2022-07-21T01:56:46;101007.00;;;30.00
15845;BMP180;50807;52.436;13.346;2022-07-21T01:57:17;101012.00;;;30.00
15845;BMP180;50807;52.436;13.346;2022-07-21T01:57:47;101007.00;;;30.00
15845;BMP180;50807;52.436;13.346;2022-07-21T01:58:19;101008.00;;;30.00
15845;BMP180;50807;52.436;13.346;2022-07-21T01:58:53;101007.00;;;30.00
15845;BMP180;50807;52.436;13.346;2022-07-21T01:59:23;101004.00;;;30.00
15845;BMP180;50807;52.436;13.346;2022-07-21T01:59:55;101011.00;;;30.00
15845;BMP180;50807;52.436;13.346;2022-07-21T02:00:26;101000.00;;;30.00
15845;BMP180;50807;52.436;13.346;2022-07-21T02:00:57;101013.00;;;30.00
15845;BMP180;50807;52.436;13.346;2022-07-21T02:01:29;101005.00;;;29.90
15845;BMP180;50807;52.436;13.346;2022-07-21T02:02:00;101012.00;;;29.90
15845;BMP180;50807;52.436;13.346;2022-07-21T02:02:31;101001.00;;;29.90
15845;BMP180;50807;52.436;13.346;2022-07-21T02:03:03;100997.00;;;29.90
15845;BMP180;50807;52.436;13.346;2022-07-21T02:03:33;101003.00;;;29.90
15845;BMP180;50807;52.436;13.346;2022-07-21T02:04:05;100999.00;;;29.90
15845;BMP180;50807;52.436;13.346;2022-07-21T02:04:37;100997.00;;;29.90
15845;BMP180;50807;52.436;13.346;2022-07-21T02:05:08;100999.00;;;29.90
15845;BMP180;50807;52.436;13.346;2022-07-21T02:05:39;101001.00;;;29.90
15845;BMP180;50807;52.436;13.346;2022-07-21T02:06:10;100998.00;;;29.90
15845;BMP180;50807;52.436;13.346;2022-07-21T02:06:41;101008.00;;;29.90
15845;BMP180;50807;52.436;13.346;2022-07-21T02:07:14;100999.00;;;29.80
15845;BMP180;50807;52.436;13.346;2022-07-21T02:07:45;101001.00;;;29.80
15845;BMP180;50807;52.436;13.346;2022-07-21T02:08:16;100995.00;;;29.80
15845;BMP180;50807;52.436;13.346;2022-07-21T02:08:47;101006.00;;;29.90
15845;BMP180;50807;52.436;13.346;2022-07-21T02:09:19;101002.00;;;29.80
15845;BMP180;50807;52.436;13.346;2022-07-21T02:09:49;101006.00;;;29.80
15845;BMP180;50807;52.436;13.346;2022-07-21T02:10:20;101004.00;;;29.80
15845;BMP180;50807;52.436;13.346;2022-07-21T02:10:52;101003.00;;;29.80
15845;BMP180;50807;52.436;13.346;2022-07-21T02:11:23;100999.00;;;29.80
15845;BMP180;50807;52.436;13.346;2022-07-21T02:11:54;101002.00;;;29.80
15845;BMP180;50807;52.436;13.346;2022-07-21T02:12:25;101000.00;;;29.80
15845;BMP180;50807;52.436;13.346;2022-07-21T02:12:56;101001.00;;;29.80
15845;BMP180;50807;52.436;13.346;2022-07-21T02:13:27;100999.00;;;29.80
15845;BMP180;50807;52.436;13.346;2022-07-21T02:13:59;101003.00;;;29.80
15845;BMP180;50807;52.436;13.346;2022-07-21T02:14:30;101003.00;;;29.80
15845;BMP180;50807;52.436;13.346;2022-07-21T02:15:00;101001.00;;;29.80
15845;BMP180;50807;52.436;13.346;2022-07-21T02:15:33;101000.00;;;29.80
15845;BMP180;50807;52.436;13.346;2022-07-21T02:16:04;101002.00;;;29.80
15845;BMP180;50807;52.436;13.346;2022-07-21T02:16:35;101009.00;;;29.80
15845;BMP180;50807;52.436;13.346;2022-07-21T02:17:07;101007.00;;;29.80
15845;BMP180;50807;52.436;13.346;2022-07-21T02:17:38;101005.00;;;29.80
15845;BMP180;50807;52.436;13.346;2022-07-21T02:18:08;101003.00;;;29.80
15845;BMP180;50807;52.436;13.346;2022-07-21T02:18:40;101004.00;;;29.70
15845;BMP180;50807;52.436;13.346;2022-07-21T02:19:12;101000.00;;;29.70
15845;BMP180;50807;52.436;13.346;2022-07-21T02:19:43;101007.00;;;29.80
15845;BMP180;50807;52.436;13.346;2022-07-21T02:20:13;100997.00;;;29.70
15845;BMP180;50807;52.436;13.346;2022-07-21T02:20:46;101008.00;;;29.70
15845;BMP180;50807;52.436;13.346;2022-07-21T02:21:18;101012.00;;;29.70
15845;BMP180;50807;52.436;13.346;2022-07-21T02:21:50;101006.00;;;29.70
15845;BMP180;50807;52.436;13.346;2022-07-21T02:22:22;101011.00;;;29.70
15845;BMP180;50807;52.436;13.346;2022-07-21T02:22:52;101002.00;;;29.70
15845;BMP180;50807;52.436;13.346;2022-07-21T02:23:25;101005.00;;;29.70
15845;BMP180;50807;52.436;13.346;2022-07-21T02:23:56;101007.00;;;29.70
15845;BMP180;50807;52.436;13.346;2022-07-21T02:24:27;101009.00;;;29.70
15845;BMP180;50807;52.436;13.346;2022-07-21T02:24:59;101009.00;;;29.70
15845;BMP180;50807;52.436;13.346;2022-07-21T02:25:29;101011.00;;;29.70
15845;BMP180;50807;52.436;13.346;2022-07-21T02:26:01;101015.00;;;29.60
15845;BMP180;50807;52.436;13.346;2022-07-21T02:26:34;101009.00;;;29.60
15845;BMP180;50807;52.436;13.346;2022-07-21T02:27:04;100996.00;;;29.60
15845;BMP180;50807;52.436;13.346;2022-07-21T02:27:36;101000.00;;;29.60
15845;BMP180;50807;52.436;13.346;2022-07-21T02:28:07;100995.00;;;29.60
15845;BMP180;50807;52.436;13.346;2022-07-21T02:28:39;101002.00;;;29.60
15845;BMP180;50807;52.436;13.346;2022-07-21T02:29:11;101006.00;;;29.60
15845;BMP180;50807;52.436;13.346;2022-07-21T02:29:41;100997.00;;;29.50
15845;BMP180;50807;52.436;13.346;2022-07-21T02:30:13;101001.00;;;29.50
15845;BMP180;50807;52.436;13.346;2022-07-21T02:30:45;100998.00;;;29.50
15845;BMP180;50807;52.436;13.346;2022-07-21T02:31:16;101005.00;;;29.50
15845;BMP180;50807;52.436;13.346;2022-07-21T02:31:47;101006.00;;;29.50
15845;BMP180;50807;52.436;13.346;2022-07-21T02:32:19;101004.00;;;29.50
15845;BMP180;50807;52.436;13.346;2022-07-21T02:32:50;101004.00;;;29.40
15845;BMP180;50807;52.436;13.346;2022-07-21T02:33:21;101006.00;;;29.40
15845;BMP180;50807;52.436;13.346;2022-07-21T02:33:53;101011.00;;;29.40
15845;BMP180;50807;52.436;13.346;2022-07-21T02:34:24;101014.00;;;29.40
15845;BMP180;50807;52.436;13.346;2022-07-21T02:34:55;101012.00;;;29.40
15845;BMP180;50807;52.436;13.346;2022-07-21T02:35:26;101016.00;;;29.40
15845;BMP180;50807;52.436;13.346;2022-07-21T02:35:57;101014.00;;;29.40
15845;BMP180;50807;52.436;13.346;2022-07-21T02:36:29;101014.00;;;29.40
15845;BMP180;50807;52.436;13.346;2022-07-21T02:37:00;101009.00;;;29.40
15845;BMP180;50807;52.436;13.346;2022-07-21T02:37:32;101007.00;;;29.40
15845;BMP180;50807;52.436;13.346;2022-07-21T02:38:04;101001.00;;;29.30
15845;BMP180;50807;52.436;13.346;2022-07-21T02:38:35;100997.00;;;29.40
15845;BMP180;50807;52.436;13.346;2022-07-21T02:39:06;100995.00;;;29.30
15845;BMP180;50807;52.436;13.346;2022-07-21T02:39:38;101004.00;;;29.30
15845;BMP180;50807;52.436;13.346;2022-07-21T02:40:09;101000.00;;;29.30
15845;BMP180;50807;52.436;13.346;2022-07-21T02:40:40;101001.00;;;29.30
15845;BMP180;50807;52.436;13.346;2022-07-21T02:41:12;101005.00;;;29.30
15845;BMP180;50807;52.436;13.346;2022-07-21T02:41:43;101016.00;;;29.30
15845;BMP180;50807;52.436;13.346;2022-07-21T02:42:14;101018.00;;;29.30
15845;BMP180;50807;52.436;13.346;2022-07-21T02:42:46;101014.00;;;29.30
15845;BMP180;50807;52.436;13.346;2022-07-21T02:43:17;101010.00;;;29.30
15845;BMP180;50807;52.436;13.346;2022-07-21T02:43:48;101008.00;;;29.20
15845;BMP180;50807;52.436;13.346;2022-07-21T02:44:19;101008.00;;;29.30
15845;BMP180;50807;52.436;13.346;2022-07-21T02:44:50;101004.00;;;29.20
15845;BMP180;50807;52.436;13.346;2022-07-21T02:45:21;100994.00;;;29.20
15845;BMP180;50807;52.436;13.346;2022-07-21T02:45:52;101004.00;;;29.20
15845;BMP180;50807;52.436;13.346;2022-07-21T02:46:23;100993.00;;;29.20
15845;BMP180;50807;52.436;13.346;2022-07-21T02:46:55;100992.00;;;29.20
15845;BMP180;50807;52.436;13.346;2022-07-21T02:47:26;100987.00;;;29.20
15845;BMP180;50807;52.436;13.346;2022-07-21T02:48:00;100988.00;;;29.20
15845;BMP180;50807;52.436;13.346;2022-07-21T02:48:33;100994.00;;;29.20
15845;BMP180;50807;52.436;13.346;2022-07-21T02:49:03;100999.00;;;29.20
15845;BMP180;50807;52.436;13.346;2022-07-21T02:49:34;100999.00;;;29.20
15845;BMP180;50807;52.436;13.346;2022-07-21T02:50:06;101001.00;;;29.20
15845;BMP180;50807;52.436;13.346;2022-07-21T02:50:40;100996.00;;;29.10
15845;BMP180;50807;52.436;13.346;2022-07-21T02:51:10;100991.00;;;29.20
15845;BMP180;50807;52.436;13.346;2022-07-21T02:51:42;100995.00;;;29.20
15845;BMP180;50807;52.436;13.346;2022-07-21T02:52:14;100989.00;;;29.10
15845;BMP180;50807;52.436;13.346;2022-07-21T02:52:46;100993.00;;;29.20
15845;BMP180;50807;52.436;13.346;2022-07-21T02:53:20;100995.00;;;29.10
15845;BMP180;50807;52.436;13.346;2022-07-21T02:53:52;100981.00;;;29.20
15845;BMP180;50807;52.436;13.346;2022-07-21T02:54:23;100988.00;;;29.10
15845;BMP180;50807;52.436;13.346;2022-07-21T02:54:55;100986.00;;;29.10
15845;BMP180;50807;52.436;13.346;2022-07-21T02:55:26;100991.00;;;29.20
15845;BMP180;50807;52.436;13.346;2022-07-21T02:55:57;100986.00;;;29.10
15845;BMP180;50807;52.436;13.346;2022-07-21T02:56:29;100996.00;;;29.10
15845;BMP180;50807;52.436;13.346;2022-07-21T02:57:00;100991.00;;;29.10
15845;BMP180;50807;52.436;13.346;2022-07-21T02:57:30;100985.00;;;29.10
15845;BMP180;50807;52.436;13.346;2022-07-21T02:58:08;100985.00;;;29.00